createdAt,value
2023-02-16T00:06:00.150Z,84.20
2023-02-16T00:16:06.513Z,88.10
2023-02-16T00:26:15.182Z,80.10
2023-02-16T00:36:22.678Z,71.30
2023-02-16T00:46:30.181Z,60.40
2023-02-16T00:56:37.805Z,66.50
2023-02-16T01:07:02.307Z,85.90
2023-02-16T01:17:11.242Z,81.10
2023-02-16T01:27:18.256Z,61.40
2023-02-16T01:37:25.417Z,54.40
2023-02-16T01:47:35.758Z,65.20
2023-02-16T01:57:44.727Z,72.10
2023-02-16T02:07:53.350Z,65.00
2023-02-16T02:18:00.523Z,53.50
2023-02-16T02:28:05.460Z,46.30
2023-02-16T02:38:11.071Z,62.80
2023-02-16T02:48:18.468Z,69.10
2023-02-16T02:58:44.043Z,67.80
2023-02-16T03:08:52.262Z,59.20
2023-02-16T03:19:18.098Z,47.10
2023-02-16T03:29:27.666Z,59.70
2023-02-16T03:49:38.760Z,71.20
2023-02-16T03:59:44.613Z,70.50
2023-02-16T04:09:51.849Z,66.40
2023-02-16T04:19:58.917Z,58.10
2023-02-16T04:30:05.482Z,56.30
2023-02-16T04:40:16.219Z,63.10
2023-02-16T04:50:22.232Z,75.80
2023-02-16T05:00:28.414Z,79.00
2023-02-16T05:10:34.448Z,67.50
2023-02-16T05:20:59.240Z,68.30
2023-02-16T05:31:07.098Z,73.80
2023-02-16T05:41:23.656Z,100.40
2023-02-16T05:51:30.679Z,95.20
2023-02-16T06:01:41.463Z,97.80
2023-02-16T06:11:48.602Z,81.80
2023-02-16T06:21:56.139Z,64.70
2023-02-16T06:32:02.668Z,64.90
2023-02-16T06:42:10.369Z,88.90
2023-02-16T06:52:17.562Z,91.00
2023-02-16T07:02:25.572Z,69.00
2023-02-16T07:12:32.994Z,60.70
2023-02-16T07:22:39.114Z,79.60
2023-02-16T07:32:44.421Z,75.60
2023-02-16T07:42:51.400Z,66.50
2023-02-16T07:52:58.529Z,47.10
2023-02-16T08:03:06.280Z,60.00
2023-02-16T08:13:13.726Z,66.90
2023-02-16T08:23:18.368Z,67.20
2023-02-16T08:33:25.557Z,64.40
2023-02-16T08:43:32.997Z,60.10
2023-02-16T08:53:41.947Z,60.60
2023-02-16T09:03:49.457Z,56.60
2023-02-16T09:13:56.632Z,67.80
2023-02-16T09:24:05.595Z,59.40
2023-02-16T09:34:18.637Z,65.30
2023-02-16T09:44:29.219Z,55.90
2023-02-16T09:54:37.358Z,57.50
2023-02-16T10:04:51.829Z,56.80
2023-02-16T10:15:04.798Z,57.30
2023-02-16T10:25:14.135Z,47.80
2023-02-16T10:45:28.700Z,52.90
2023-02-16T10:55:36.113Z,39.10
2023-02-16T11:05:43.576Z,39.80
2023-02-16T11:15:54.950Z,41.20
2023-02-16T11:26:01.006Z,38.70
2023-02-16T11:36:07.643Z,46.00
2023-02-16T11:46:12.861Z,34.60
2023-02-16T11:56:22.644Z,35.70
2023-02-16T12:06:31.375Z,36.70
2023-02-16T12:16:41.695Z,37.50
2023-02-16T12:26:48.227Z,41.70
2023-02-16T12:36:54.609Z,39.10
2023-02-16T12:47:06.359Z,38.80
2023-02-16T12:57:11.824Z,39.50
2023-02-16T13:07:16.160Z,39.20
2023-02-16T13:17:32.173Z,39.80
2023-02-16T13:27:38.581Z,44.30
2023-02-16T13:37:51.249Z,49.10
2023-02-16T13:47:59.895Z,46.40
2023-02-16T13:58:06.636Z,33.70
2023-02-16T14:08:11.366Z,38.20
2023-02-16T14:18:29.523Z,44.00
2023-02-16T14:29:16.148Z,48.20
2023-02-16T14:39:26.072Z,45.00
2023-02-16T14:49:41.890Z,37.00
2023-02-16T14:59:51.657Z,59.70
2023-02-16T15:20:04.281Z,97.00
2023-02-16T15:30:27.447Z,75.10
2023-02-16T15:40:35.710Z,54.20
2023-02-16T15:50:44.197Z,56.20
2023-02-16T16:00:51.738Z,49.60
2023-02-16T16:10:59.796Z,56.60
2023-02-16T16:21:13.719Z,110.90
2023-02-16T16:31:33.251Z,98.70
2023-02-16T16:51:54.524Z,97.20
2023-02-16T17:02:01.928Z,74.10
2023-02-16T17:12:09.536Z,64.00
2023-02-16T17:22:18.516Z,72.30
2023-02-16T17:32:26.133Z,71.70
2023-02-16T17:42:33.906Z,65.00
2023-02-16T17:52:41.792Z,64.00
2023-02-16T18:02:49.101Z,63.90
2023-02-16T18:12:57.104Z,86.30
2023-02-16T18:23:03.375Z,78.80
2023-02-16T18:33:11.094Z,86.30
2023-02-16T18:43:18.882Z,84.90
2023-02-16T18:53:25.224Z,62.60
2023-02-16T19:03:32.931Z,76.90
2023-02-16T19:13:40.887Z,72.80
2023-02-16T19:23:47.429Z,96.50
2023-02-16T19:33:55.300Z,124.10
2023-02-16T19:44:03.057Z,111.00
2023-02-16T19:54:10.634Z,98.50
2023-02-16T20:04:18.118Z,79.20
2023-02-16T20:14:25.251Z,96.40
2023-02-16T20:24:32.854Z,118.30
2023-02-16T20:34:40.337Z,118.90
2023-02-16T20:44:47.724Z,125.00
2023-02-16T20:54:55.095Z,82.20
2023-02-16T21:05:02.237Z,82.80
2023-02-16T21:15:09.748Z,81.40
2023-02-16T21:25:17.912Z,111.50
2023-02-16T21:35:25.180Z,115.10
2023-02-16T21:45:32.928Z,124.90
2023-02-16T21:55:57.282Z,88.60
2023-02-16T22:06:06.612Z,120.50
2023-02-16T22:16:12.389Z,111.20
2023-02-16T22:26:22.947Z,118.40
2023-02-16T22:36:29.233Z,113.00
2023-02-16T22:46:36.689Z,118.60
2023-02-16T22:56:43.965Z,86.40
2023-02-16T23:06:51.362Z,74.60
2023-02-16T23:16:58.644Z,82.80
2023-02-16T23:27:04.817Z,108.20
2023-02-16T23:37:12.063Z,102.50
2023-02-16T23:47:20.604Z,115.50
2023-02-16T23:57:27.867Z,80.70
